sensor_id;sensor_type;location;lat;lon;timestamp;pressure;altitude;pressure_sealevel;temperature;humidity
19112;BME280;9688;51.906;8.376;2022-07-29T00:02:49;100827.25;;;20.63;48.65
19112;BME280;9688;51.906;8.376;2022-07-29T00:05:55;100823.81;;;20.61;48.51
19112;BME280;9688;51.906;8.376;2022-07-29T00:09:00;100826.41;;;20.63;48.65
19112;BME280;9688;51.906;8.376;2022-07-29T00:12:05;100810.41;;;20.61;48.70
19112;BME280;9688;51.906;8.376;2022-07-29T00:15:10;100814.81;;;20.62;48.79
19112;BME280;9688;51.906;8.376;2022-07-29T00:18:15;100807.72;;;20.61;48.69
19112;BME280;9688;51.906;8.376;2022-07-29T00:21:20;100807.72;;;20.61;48.93
19112;BME280;9688;51.906;8.376;2022-07-29T00:24:25;100816.50;;;20.63;48.81
19112;BME280;9688;51.906;8.376;2022-07-29T00:27:31;100814.56;;;20.65;48.90
19112;BME280;9688;51.906;8.376;2022-07-29T00:30:36;100810.91;;;20.66;48.84
19112;BME280;9688;51.906;8.376;2022-07-29T00:33:40;100810.16;;;20.64;48.71
19112;BME280;9688;51.906;8.376;2022-07-29T00:36:46;100805.91;;;20.62;48.93
19112;BME280;9688;51.906;8.376;2022-07-29T00:39:50;100808.19;;;20.55;49.15
19112;BME280;9688;51.906;8.376;2022-07-29T00:42:54;100803.03;;;20.52;49.24
19112;BME280;9688;51.906;8.376;2022-07-29T00:45:59;100803.28;;;20.49;49.36
19112;BME280;9688;51.906;8.376;2022-07-29T00:49:04;100801.56;;;20.48;49.23
19112;BME280;9688;51.906;8.376;2022-07-29T00:52:12;100809.63;;;20.48;49.37
19112;BME280;9688;51.906;8.376;2022-07-29T00:55:17;100798.97;;;20.46;49.50
19112;BME280;9688;51.906;8.376;2022-07-29T00:58:22;100798.25;;;20.44;49.60
19112;BME280;9688;51.906;8.376;2022-07-29T01:01:27;100783.34;;;20.40;49.68
19112;BME280;9688;51.906;8.376;2022-07-29T01:04:32;100784.53;;;20.36;49.78
19112;BME280;9688;51.906;8.376;2022-07-29T01:07:39;100775.63;;;20.36;49.92
19112;BME280;9688;51.906;8.376;2022-07-29T01:10:44;100769.53;;;20.34;50.00
19112;BME280;9688;51.906;8.376;2022-07-29T01:13:49;100760.63;;;20.33;49.85
19112;BME280;9688;51.906;8.376;2022-07-29T01:16:58;100761.47;;;20.34;50.05
19112;BME280;9688;51.906;8.376;2022-07-29T01:20:11;100763.53;;;20.30;49.97
19112;BME280;9688;51.906;8.376;2022-07-29T01:23:51;100763.69;;;20.28;50.17
19112;BME280;9688;51.906;8.376;2022-07-29T01:26:59;100763.88;;;20.25;50.24
19112;BME280;9688;51.906;8.376;2022-07-29T01:30:10;100748.75;;;20.24;50.37
19112;BME280;9688;51.906;8.376;2022-07-29T01:33:17;100753.28;;;20.24;50.40
19112;BME280;9688;51.906;8.376;2022-07-29T01:36:43;100749.50;;;20.26;50.40
19112;BME280;9688;51.906;8.376;2022-07-29T01:39:52;100732.56;;;20.26;50.52
19112;BME280;9688;51.906;8.376;2022-07-29T01:42:59;100728.28;;;20.23;50.55
19112;BME280;9688;51.906;8.376;2022-07-29T01:46:11;100729.47;;;20.19;50.42
19112;BME280;9688;51.906;8.376;2022-07-29T01:49:21;100732.16;;;20.19;50.59
19112;BME280;9688;51.906;8.376;2022-07-29T01:52:33;100739.13;;;20.22;50.59
19112;BME280;9688;51.906;8.376;2022-07-29T01:55:42;100735.59;;;20.21;50.26
19112;BME280;9688;51.906;8.376;2022-07-29T01:58:49;100732.16;;;20.19;50.71
19112;BME280;9688;51.906;8.376;2022-07-29T02:01:58;100728.84;;;20.16;50.67
19112;BME280;9688;51.906;8.376;2022-07-29T02:05:06;100720.91;;;20.14;50.70
19112;BME280;9688;51.906;8.376;2022-07-29T02:08:15;100729.09;;;20.13;50.64
19112;BME280;9688;51.906;8.376;2022-07-29T02:11:20;100719.31;;;20.12;51.04
19112;BME280;9688;51.906;8.376;2022-07-29T02:14:29;100721.78;;;20.15;50.93
19112;BME280;9688;51.906;8.376;2022-07-29T02:17:41;100725.31;;;20.15;51.03
19112;BME280;9688;51.906;8.376;2022-07-29T02:20:48;100718.13;;;20.16;50.64
19112;BME280;9688;51.906;8.376;2022-07-29T02:23:54;100716.53;;;20.13;51.05
19112;BME280;9688;51.906;8.376;2022-07-29T02:27:01;100714.19;;;20.09;51.19
19112;BME280;9688;51.906;8.376;2022-07-29T02:30:08;100709.06;;;20.05;51.28
19112;BME280;9688;51.906;8.376;2022-07-29T02:33:18;100712.09;;;20.01;51.40
19112;BME280;9688;51.906;8.376;2022-07-29T02:36:24;100707.09;;;19.96;51.44
19112;BME280;9688;51.906;8.376;2022-07-29T02:39:31;100715.59;;;19.90;51.59
19112;BME280;9688;51.906;8.376;2022-07-29T02:42:37;100711.44;;;19.86;51.74
19112;BME280;9688;51.906;8.376;2022-07-29T02:45:43;100703.63;;;19.83;52.09
19112;BME280;9688;51.906;8.376;2022-07-29T02:48:56;100708.00;;;19.84;52.20
19112;BME280;9688;51.906;8.376;2022-07-29T02:52:03;100704.38;;;19.85;51.89
19112;BME280;9688;51.906;8.376;2022-07-29T02:55:12;100711.44;;;19.86;52.12
19112;BME280;9688;51.906;8.376;2022-07-29T02:58:24;100711.44;;;19.86;51.78
19112;BME280;9688;51.906;8.376;2022-07-29T03:01:32;100710.47;;;19.87;52.29
19112;BME280;9688;51.906;8.376;2022-07-29T03:04:40;100714.97;;;19.87;52.15
19112;BME280;9688;51.906;8.376;2022-07-29T03:07:49;100712.41;;;19.85;51.91
19112;BME280;9688;51.906;8.376;2022-07-29T03:10:56;100706.91;;;19.87;52.06
19112;BME280;9688;51.906;8.376;2022-07-29T03:14:01;100714.00;;;19.88;52.37
19112;BME280;9688;51.906;8.376;2022-07-29T03:17:07;100709.38;;;19.90;52.05
19112;BME280;9688;51.906;8.376;2022-07-29T03:20:18;100713.16;;;19.87;51.90
19112;BME280;9688;51.906;8.376;2022-07-29T03:23:23;100707.16;;;19.83;52.33
19112;BME280;9688;51.906;8.376;2022-07-29T03:26:31;100710.81;;;19.82;52.23
19112;BME280;9688;51.906;8.376;2022-07-29T03:29:35;100711.06;;;19.79;52.56
19112;BME280;9688;51.906;8.376;2022-07-29T03:32:40;100714.94;;;19.75;52.45
19112;BME280;9688;51.906;8.376;2022-07-29T03:35:47;100715.38;;;19.69;52.95
19112;BME280;9688;51.906;8.376;2022-07-29T03:38:52;100712.84;;;19.68;52.93
19112;BME280;9688;51.906;8.376;2022-07-29T03:41:59;100700.38;;;19.67;53.09
19112;BME280;9688;51.906;8.376;2022-07-29T03:45:07;100699.84;;;19.61;53.60
19112;BME280;9688;51.906;8.376;2022-07-29T03:48:15;100709.94;;;19.58;53.58
19112;BME280;9688;51.906;8.376;2022-07-29T03:51:22;100707.38;;;19.56;53.51
19112;BME280;9688;51.906;8.376;2022-07-29T03:54:27;100704.69;;;19.56;53.39
19112;BME280;9688;51.906;8.376;2022-07-29T03:57:32;100701.38;;;19.53;53.45
19112;BME280;9688;51.906;8.376;2022-07-29T04:00:39;100706.22;;;19.48;53.62
19112;BME280;9688;51.906;8.376;2022-07-29T04:03:44;100704.75;;;19.44;54.07
19112;BME280;9688;51.906;8.376;2022-07-29T04:06:51;100704.88;;;19.42;53.79
19112;BME280;9688;51.906;8.376;2022-07-29T04:09:56;100703.16;;;19.41;53.78
19112;BME280;9688;51.906;8.376;2022-07-29T04:13:00;100713.75;;;19.43;53.94
19112;BME280;9688;51.906;8.376;2022-07-29T04:16:12;100722.09;;;19.51;53.69
19112;BME280;9688;51.906;8.376;2022-07-29T04:19:17;100720.78;;;19.56;53.39
19112;BME280;9688;51.906;8.376;2022-07-29T04:22:22;100714.22;;;19.60;53.61
19112;BME280;9688;51.906;8.376;2022-07-29T04:25:27;100718.50;;;19.63;53.61
19112;BME280;9688;51.906;8.376;2022-07-29T04:28:32;100706.50;;;19.69;53.39
19112;BME280;9688;51.906;8.376;2022-07-29T04:31:37;100709.28;;;19.67;53.31
19112;BME280;9688;51.906;8.376;2022-07-29T04:34:42;100707.56;;;19.66;53.35
19112;BME280;9688;51.906;8.376;2022-07-29T04:37:50;100708.19;;;19.70;53.31
19112;BME280;9688;51.906;8.376;2022-07-29T04:40:54;100702.59;;;19.73;53.18
19112;BME280;9688;51.906;8.376;2022-07-29T04:43:59;100710.41;;;19.76;53.18
19112;BME280;9688;51.906;8.376;2022-07-29T04:47:08;100709.97;;;19.82;53.23
19112;BME280;9688;51.906;8.376;2022-07-29T04:50:14;100704.88;;;19.90;53.14
19112;BME280;9688;51.906;8.376;2022-07-29T04:53:20;100702.91;;;19.92;53.00
19112;BME280;9688;51.906;8.376;2022-07-29T04:56:24;100700.13;;;19.94;52.91
19112;BME280;9688;51.906;8.376;2022-07-29T04:59:29;100702.69;;;19.95;53.03
19112;BME280;9688;51.906;8.376;2022-07-29T05:02:34;100697.94;;;19.99;53.13
19112;BME280;9688;51.906;8.376;2022-07-29T05:05:39;100703.81;;;20.04;52.99
19112;BME280;9688;51.906;8.376;2022-07-29T05:08:45;100697.97;;;20.10;52.91
19112;BME280;9688;51.906;8.376;2022-07-29T05:11:49;100697.00;;;20.11;52.68
19112;BME280;9688;51.906;8.376;2022-07-29T05:14:55;100696.00;;;20.01;53.04
19112;BME280;9688;51.906;8.376;2022-07-29T05:18:00;100693.66;;;19.96;52.99
19112;BME280;9688;51.906;8.376;2022-07-29T05:21:05;100694.84;;;19.92;53.31
19112;BME280;9688;51.906;8.376;2022-07-29T05:24:11;100688.53;;;19.93;53.26
19112;BME280;9688;51.906;8.376;2022-07-29T05:27:16;100687.97;;;20.01;53.24
19112;BME280;9688;51.906;8.376;2022-07-29T05:30:21;100676.84;;;20.05;53.34
19112;BME280;9688;51.906;8.376;2022-07-29T05:33:26;100685.75;;;20.06;53.40
19112;BME280;9688;51.906;8.376;2022-07-29T05:36:31;100683.44;;;20.01;53.65
19112;BME280;9688;51.906;8.376;2022-07-29T05:39:37;100682.31;;;19.93;53.84
19112;BME280;9688;51.906;8.376;2022-07-29T05:42:42;100686.94;;;19.91;54.27
19112;BME280;9688;51.906;8.376;2022-07-29T05:45:47;100693.06;;;19.93;54.20
19112;BME280;9688;51.906;8.376;2022-07-29T05:48:52;100702.56;;;19.97;54.22
19112;BME280;9688;51.906;8.376;2022-07-29T05:51:57;100706.13;;;20.09;54.14
19112;BME280;9688;51.906;8.376;2022-07-29T05:55:04;100714.59;;;20.15;54.16
19112;BME280;9688;51.906;8.376;2022-07-29T05:58:09;100716.78;;;20.21;53.97
19112;BME280;9688;51.906;8.376;2022-07-29T06:01:14;100719.13;;;20.26;53.74
19112;BME280;9688;51.906;8.376;2022-07-29T06:04:19;100724.13;;;20.31;53.76
19112;BME280;9688;51.906;8.376;2022-07-29T06:07:23;100726.22;;;20.38;53.71
19112;BME280;9688;51.906;8.376;2022-07-29T06:10:29;100721.00;;;20.48;53.60
19112;BME280;9688;51.906;8.376;2022-07-29T06:13:34;100725.66;;;20.57;53.41
19112;BME280;9688;51.906;8.376;2022-07-29T06:16:38;100723.97;;;20.67;53.41
19112;BME280;9688;51.906;8.376;2022-07-29T06:19:43;100730.44;;;20.76;53.24
19112;BME280;9688;51.906;8.376;2022-07-29T06:22:48;100736.41;;;20.80;52.88
19112;BME280;9688;51.906;8.376;2022-07-29T06:25:54;100727.88;;;20.86;52.63
19112;BME280;9688;51.906;8.376;2022-07-29T06:28:58;100728.94;;;20.94;52.11
19112;BME280;9688;51.906;8.376;2022-07-29T06:32:05;100726.75;;;21.00;51.92
19112;BME280;9688;51.906;8.376;2022-07-29T06:35:11;100728.06;;;21.16;52.06
19112;BME280;9688;51.906;8.376;2022-07-29T06:38:16;100717.19;;;21.29;51.79
19112;BME280;9688;51.906;8.376;2022-07-29T06:41:22;100718.03;;;21.30;52.10
19112;BME280;9688;51.906;8.376;2022-07-29T06:44:26;100720.50;;;21.22;52.42
19112;BME280;9688;51.906;8.376;2022-07-29T06:47:31;100734.94;;;21.21;52.85
19112;BME280;9688;51.906;8.376;2022-07-29T06:50:35;100727.78;;;21.31;52.85
19112;BME280;9688;51.906;8.376;2022-07-29T06:53:41;100726.22;;;21.28;52.52
19112;BME280;9688;51.906;8.376;2022-07-29T06:56:48;100723.91;;;21.35;52.31
19112;BME280;9688;51.906;8.376;2022-07-29T06:59:56;100725.59;;;21.47;51.78
19112;BME280;9688;51.906;8.376;2022-07-29T07:03:01;100726.31;;;21.49;51.46
19112;BME280;9688;51.906;8.376;2022-07-29T07:06:05;100726.06;;;21.52;51.33
19112;BME280;9688;51.906;8.376;2022-07-29T07:09:10;100727.66;;;21.55;50.70
19112;BME280;9688;51.906;8.376;2022-07-29T07:12:17;100733.25;;;21.63;50.81
19112;BME280;9688;51.906;8.376;2022-07-29T07:15:22;100740.34;;;21.64;50.60
19112;BME280;9688;51.906;8.376;2022-07-29T07:18:27;100745.59;;;21.66;50.38
19112;BME280;9688;51.906;8.376;2022-07-29T07:21:33;100746.19;;;21.69;49.91
19112;BME280;9688;51.906;8.376;2022-07-29T07:24:39;100755.72;;;21.73;50.04
19112;BME280;9688;51.906;8.376;2022-07-29T07:27:47;100746.28;;;21.79;49.82
19112;BME280;9688;51.906;8.376;2022-07-29T07:30:52;100760.72;;;21.78;49.95
19112;BME280;9688;51.906;8.376;2022-07-29T07:33:57;100749.19;;;21.87;49.68
19112;BME280;9688;51.906;8.376;2022-07-29T07:37:02;100756.22;;;21.99;49.43
19112;BME280;9688;51.906;8.376;2022-07-29T07:40:09;100762.66;;;22.08;49.60
19112;BME280;9688;51.906;8.376;2022-07-29T07:43:16;100759.09;;;22.19;49.42
19112;BME280;9688;51.906;8.376;2022-07-29T07:46:21;100763.19;;;22.34;49.11
19112;BME280;9688;51.906;8.376;2022-07-29T07:49:25;100764.09;;;22.44;49.10
19112;BME280;9688;51.906;8.376;2022-07-29T07:52:30;100762.13;;;22.46;48.82
19112;BME280;9688;51.906;8.376;2022-07-29T07:55:39;100750.50;;;22.46;48.95
19112;BME280;9688;51.906;8.376;2022-07-29T07:58:46;100752.66;;;22.52;48.93
19112;BME280;9688;51.906;8.376;2022-07-29T08:01:51;100748.50;;;22.69;48.50
19112;BME280;9688;51.906;8.376;2022-07-29T08:04:56;100741.31;;;22.79;48.93
19112;BME280;9688;51.906;8.376;2022-07-29T08:08:03;100755.03;;;22.97;48.74
19112;BME280;9688;51.906;8.376;2022-07-29T08:11:08;100758.22;;;23.12;48.62
19112;BME280;9688;51.906;8.376;2022-07-29T08:14:14;100758.97;;;23.24;47.64
19112;BME280;9688;51.906;8.376;2022-07-29T08:17:19;100753.63;;;23.33;47.47
19112;BME280;9688;51.906;8.376;2022-07-29T08:20:24;100755.03;;;23.37;47.12
19112;BME280;9688;51.906;8.376;2022-07-29T08:23:30;100752.78;;;23.43;47.14
19112;BME280;9688;51.906;8.376;2022-07-29T08:26:42;100751.31;;;23.38;46.61
19112;BME280;9688;51.906;8.376;2022-07-29T08:29:49;100743.50;;;23.35;46.92
19112;BME280;9688;51.906;8.376;2022-07-29T08:32:54;100751.31;;;23.38;46.97
19112;BME280;9688;51.906;8.376;2022-07-29T08:36:00;100737.44;;;23.43;46.55
19112;BME280;9688;51.906;8.376;2022-07-29T08:39:05;100750.22;;;23.51;46.95
19112;BME280;9688;51.906;8.376;2022-07-29T08:42:10;100745.97;;;23.58;46.92
19112;BME280;9688;51.906;8.376;2022-07-29T08:45:17;100744.31;;;23.76;46.59
19112;BME280;9688;51.906;8.376;2022-07-29T08:48:22;100742.34;;;23.98;46.21
19112;BME280;9688;51.906;8.376;2022-07-29T08:51:28;100735.19;;;24.16;46.21
19112;BME280;9688;51.906;8.376;2022-07-29T08:54:34;100743.69;;;24.41;46.10
19112;BME280;9688;51.906;8.376;2022-07-29T08:57:39;100736.16;;;24.91;45.00
19112;BME280;9688;51.906;8.376;2022-07-29T09:00:50;100743.00;;;25.13;43.90
19112;BME280;9688;51.906;8.376;2022-07-29T09:03:55;100735.59;;;25.43;43.33
19112;BME280;9688;51.906;8.376;2022-07-29T09:07:03;100728.97;;;25.73;43.01
19112;BME280;9688;51.906;8.376;2022-07-29T09:10:10;100728.59;;;26.04;42.61
19112;BME280;9688;51.906;8.376;2022-07-29T09:13:15;100718.47;;;26.06;42.26
19112;BME280;9688;51.906;8.376;2022-07-29T09:16:22;100716.84;;;25.95;42.05
19112;BME280;9688;51.906;8.376;2022-07-29T09:19:28;100719.31;;;25.71;42.49
19112;BME280;9688;51.906;8.376;2022-07-29T09:22:33;100724.25;;;25.57;42.43
19112;BME280;9688;51.906;8.376;2022-07-29T09:25:40;100716.22;;;25.66;41.94
19112;BME280;9688;51.906;8.376;2022-07-29T09:28:45;100720.47;;;25.68;42.07
19112;BME280;9688;51.906;8.376;2022-07-29T09:31:54;100712.91;;;25.72;41.92
19112;BME280;9688;51.906;8.376;2022-07-29T09:35:17;100716.53;;;25.63;41.61
19112;BME280;9688;51.906;8.376;2022-07-29T09:38:23;100710.09;;;25.46;42.05
19112;BME280;9688;51.906;8.376;2022-07-29T09:41:28;100714.72;;;25.35;42.15
19112;BME280;9688;51.906;8.376;2022-07-29T09:44:44;100716.19;;;25.30;42.21
19112;BME280;9688;51.906;8.376;2022-07-29T09:47:52;100706.81;;;25.24;42.19
19112;BME280;9688;51.906;8.376;2022-07-29T09:51:00;100709.66;;;25.50;41.59
19112;BME280;9688;51.906;8.376;2022-07-29T09:54:23;100705.38;;;25.66;40.86
19112;BME280;9688;51.906;8.376;2022-07-29T09:57:28;100707.63;;;25.70;40.84
19112;BME280;9688;51.906;8.376;2022-07-29T10:00:42;100700.94;;;25.82;41.09
19112;BME280;9688;51.906;8.376;2022-07-29T10:03:54;100709.69;;;25.86;40.73
19112;BME280;9688;51.906;8.376;2022-07-29T10:07:01;100706.34;;;25.92;40.66
19112;BME280;9688;51.906;8.376;2022-07-29T10:10:09;100699.31;;;26.08;40.26
19112;BME280;9688;51.906;8.376;2022-07-29T10:13:17;100703.38;;;26.30;39.66
19112;BME280;9688;51.906;8.376;2022-07-29T10:16:22;100703.75;;;26.53;39.44
19112;BME280;9688;51.906;8.376;2022-07-29T10:19:31;100694.03;;;26.76;39.06
19112;BME280;9688;51.906;8.376;2022-07-29T10:22:36;100704.56;;;26.87;38.34
19112;BME280;9688;51.906;8.376;2022-07-29T10:25:41;100698.63;;;26.84;38.29
19112;BME280;9688;51.906;8.376;2022-07-29T10:28:46;100703.25;;;26.91;38.04
19112;BME280;9688;51.906;8.376;2022-07-29T10:32:00;100691.09;;;27.12;37.81
19112;BME280;9688;51.906;8.376;2022-07-29T10:39:11;100685.28;;;27.66;36.80
19112;BME280;9688;51.906;8.376;2022-07-29T10:42:25;100691.78;;;27.89;36.38
19112;BME280;9688;51.906;8.376;2022-07-29T10:45:32;100686.00;;;28.00;36.11
19112;BME280;9688;51.906;8.376;2022-07-29T10:49:06;100671.22;;;28.03;36.19
19112;BME280;9688;51.906;8.376;2022-07-29T10:52:14;100668.50;;;28.19;35.96
19112;BME280;9688;51.906;8.376;2022-07-29T10:55:31;100681.38;;;28.34;35.77
19112;BME280;9688;51.906;8.376;2022-07-29T10:58:36;100678.31;;;28.37;35.92
19112;BME280;9688;51.906;8.376;2022-07-29T11:01:42;100673.06;;;28.43;36.24
19112;BME280;9688;51.906;8.376;2022-07-29T11:05:01;100680.00;;;28.38;36.60
19112;BME280;9688;51.906;8.376;2022-07-29T11:08:23;100678.53;;;28.19;36.74
19112;BME280;9688;51.906;8.376;2022-07-29T11:11:31;100674.44;;;28.15;37.18
19112;BME280;9688;51.906;8.376;2022-07-29T11:14:58;100672.56;;;28.07;37.32
19112;BME280;9688;51.906;8.376;2022-07-29T11:18:08;100679.03;;;28.14;37.26
19112;BME280;9688;51.906;8.376;2022-07-29T11:21:36;100676.16;;;28.24;37.43
19112;BME280;9688;51.906;8.376;2022-07-29T11:24:43;100676.31;;;28.22;37.53
19112;BME280;9688;51.906;8.376;2022-07-29T11:27:47;100680.00;;;28.38;37.35
19112;BME280;9688;51.906;8.376;2022-07-29T11:30:53;100681.16;;;28.60;37.35
19112;BME280;9688;51.906;8.376;2022-07-29T11:34:16;100677.47;;;28.92;36.62
19112;BME280;9688;51.906;8.376;2022-07-29T11:37:22;100678.00;;;28.87;36.39
19112;BME280;9688;51.906;8.376;2022-07-29T11:40:30;100680.03;;;28.94;36.23
19112;BME280;9688;51.906;8.376;2022-07-29T11:43:46;100681.78;;;28.78;36.66
19112;BME280;9688;51.906;8.376;2022-07-29T11:46:52;100680.28;;;28.67;36.13
19112;BME280;9688;51.906;8.376;2022-07-29T11:50:00;100674.53;;;28.54;36.58
19112;BME280;9688;51.906;8.376;2022-07-29T11:53:20;100675.59;;;28.29;36.20
19112;BME280;9688;51.906;8.376;2022-07-29T11:56:31;100677.00;;;28.08;36.22
19112;BME280;9688;51.906;8.376;2022-07-29T11:59:39;100671.56;;;28.24;36.54
19112;BME280;9688;51.906;8.376;2022-07-29T12:02:45;100675.72;;;28.60;36.14
19112;BME280;9688;51.906;8.376;2022-07-29T12:05:51;100673.16;;;28.66;35.26
19112;BME280;9688;51.906;8.376;2022-07-29T12:08:56;100673.69;;;28.62;36.10
19112;BME280;9688;51.906;8.376;2022-07-29T12:12:03;100665.69;;;28.68;35.36
19112;BME280;9688;51.906;8.376;2022-07-29T12:15:14;100665.44;;;28.78;35.41
19112;BME280;9688;51.906;8.376;2022-07-29T12:18:21;100673.22;;;28.89;34.90
19112;BME280;9688;51.906;8.376;2022-07-29T12:21:26;100668.00;;;28.80;35.40
19112;BME280;9688;51.906;8.376;2022-07-29T12:24:42;100662.06;;;28.76;35.49
19112;BME280;9688;51.906;8.376;2022-07-29T12:27:58;100666.22;;;28.56;35.20
19112;BME280;9688;51.906;8.376;2022-07-29T12:31:04;100673.31;;;28.65;35.19
19112;BME280;9688;51.906;8.376;2022-07-29T12:34:10;100667.25;;;28.94;34.25
19112;BME280;9688;51.906;8.376;2022-07-29T12:37:15;100674.16;;;29.13;33.99
19112;BME280;9688;51.906;8.376;2022-07-29T12:40:20;100665.28;;;29.19;34.02
19112;BME280;9688;51.906;8.376;2022-07-29T12:43:27;100671.09;;;29.16;34.33
19112;BME280;9688;51.906;8.376;2022-07-29T12:46:32;100663.03;;;29.23;34.59
19112;BME280;9688;51.906;8.376;2022-07-29T12:49:38;100659.47;;;29.22;34.21
19112;BME280;9688;51.906;8.376;2022-07-29T12:52:43;100657.47;;;29.16;34.81
19112;BME280;9688;51.906;8.376;2022-07-29T12:55:51;100661.94;;;29.01;34.76
19112;BME280;9688;51.906;8.376;2022-07-29T12:58:57;100656.41;;;28.86;34.71
19112;BME280;9688;51.906;8.376;2022-07-29T13:02:02;100657.47;;;28.77;35.26
19112;BME280;9688;51.906;8.376;2022-07-29T13:05:08;100652.94;;;28.61;35.73
19112;BME280;9688;51.906;8.376;2022-07-29T13:08:14;100652.28;;;28.51;36.33
19112;BME280;9688;51.906;8.376;2022-07-29T13:11:30;100647.03;;;28.49;35.86
19112;BME280;9688;51.906;8.376;2022-07-29T13:14:38;100650.28;;;28.44;36.18
19112;BME280;9688;51.906;8.376;2022-07-29T13:17:43;100648.72;;;28.42;36.61
19112;BME280;9688;51.906;8.376;2022-07-29T13:20:47;100650.41;;;28.51;36.08
19112;BME280;9688;51.906;8.376;2022-07-29T13:23:52;100647.19;;;28.56;36.00
19112;BME280;9688;51.906;8.376;2022-07-29T13:26:57;100643.25;;;28.58;36.56
19112;BME280;9688;51.906;8.376;2022-07-29T13:30:09;100639.34;;;28.61;36.27
19112;BME280;9688;51.906;8.376;2022-07-29T13:33:14;100644.44;;;28.64;35.90
19112;BME280;9688;51.906;8.376;2022-07-29T13:36:19;100636.47;;;28.54;35.74
19112;BME280;9688;51.906;8.376;2022-07-29T13:39:24;100636.69;;;28.44;35.59
19112;BME280;9688;51.906;8.376;2022-07-29T13:42:29;100635.84;;;28.36;35.55
19112;BME280;9688;51.906;8.376;2022-07-29T13:45:35;100628.41;;;28.21;36.51
19112;BME280;9688;51.906;8.376;2022-07-29T13:48:39;100632.69;;;28.08;36.50
19112;BME280;9688;51.906;8.376;2022-07-29T13:51:44;100628.94;;;27.92;37.14
19112;BME280;9688;51.906;8.376;2022-07-29T13:54:49;100640.84;;;27.83;37.81
19112;BME280;9688;51.906;8.376;2022-07-29T13:57:53;100636.75;;;27.71;37.60
19112;BME280;9688;51.906;8.376;2022-07-29T14:00:59;100636.72;;;27.54;38.10
19112;BME280;9688;51.906;8.376;2022-07-29T14:04:04;100640.66;;;27.44;38.30
19112;BME280;9688;51.906;8.376;2022-07-29T14:07:09;100639.28;;;27.40;38.57
19112;BME280;9688;51.906;8.376;2022-07-29T14:10:14;100643.50;;;27.34;38.92
19112;BME280;9688;51.906;8.376;2022-07-29T14:13:19;100635.53;;;27.32;38.67
19112;BME280;9688;51.906;8.376;2022-07-29T14:16:27;100644.34;;;27.34;38.92
19112;BME280;9688;51.906;8.376;2022-07-29T14:19:32;100645.41;;;27.42;38.97
19112;BME280;9688;51.906;8.376;2022-07-29T14:22:40;100645.41;;;27.42;38.79
19112;BME280;9688;51.906;8.376;2022-07-29T14:25:45;100648.25;;;27.40;39.10
19112;BME280;9688;51.906;8.376;2022-07-29T14:28:50;100648.44;;;27.39;39.26
19112;BME280;9688;51.906;8.376;2022-07-29T14:31:57;100649.44;;;27.29;38.97
19112;BME280;9688;51.906;8.376;2022-07-29T14:35:03;100644.47;;;27.08;39.33
19112;BME280;9688;51.906;8.376;2022-07-29T14:38:10;100654.41;;;26.91;39.67
19112;BME280;9688;51.906;8.376;2022-07-29T14:41:14;100660.66;;;26.84;39.54
19112;BME280;9688;51.906;8.376;2022-07-29T14:44:19;100654.69;;;26.72;39.93
19112;BME280;9688;51.906;8.376;2022-07-29T14:47:25;100651.94;;;26.64;40.64
19112;BME280;9688;51.906;8.376;2022-07-29T14:50:30;100655.13;;;26.59;40.40
19112;BME280;9688;51.906;8.376;2022-07-29T14:53:35;100663.44;;;26.58;40.40
19112;BME280;9688;51.906;8.376;2022-07-29T14:56:39;100659.00;;;26.57;40.23
19112;BME280;9688;51.906;8.376;2022-07-29T14:59:44;100659.84;;;26.57;40.64
19112;BME280;9688;51.906;8.376;2022-07-29T15:02:51;100657.31;;;26.56;40.80
19112;BME280;9688;51.906;8.376;2022-07-29T15:05:56;100663.91;;;26.53;41.15
19112;BME280;9688;51.906;8.376;2022-07-29T15:09:01;100667.25;;;26.47;41.25
19112;BME280;9688;51.906;8.376;2022-07-29T15:12:06;100663.66;;;26.38;41.43
19112;BME280;9688;51.906;8.376;2022-07-29T15:15:11;100656.31;;;26.31;41.66
19112;BME280;9688;51.906;8.376;2022-07-29T15:18:17;100654.59;;;26.30;41.83
19112;BME280;9688;51.906;8.376;2022-07-29T15:21:22;100649.50;;;26.26;42.11
19112;BME280;9688;51.906;8.376;2022-07-29T15:24:27;100658.66;;;26.25;42.29
19112;BME280;9688;51.906;8.376;2022-07-29T15:27:32;100645.56;;;26.21;42.75
19112;BME280;9688;51.906;8.376;2022-07-29T15:30:38;100650.97;;;26.21;42.75
19112;BME280;9688;51.906;8.376;2022-07-29T15:33:46;100653.50;;;26.14;42.98
19112;BME280;9688;51.906;8.376;2022-07-29T15:36:51;100649.50;;;26.00;42.87
19112;BME280;9688;51.906;8.376;2022-07-29T15:39:56;100643.97;;;25.84;43.64
19112;BME280;9688;51.906;8.376;2022-07-29T15:43:04;100638.91;;;25.71;44.07
19112;BME280;9688;51.906;8.376;2022-07-29T15:46:14;100634.97;;;25.66;44.19
19112;BME280;9688;51.906;8.376;2022-07-29T15:49:40;100632.75;;;25.61;44.22
19112;BME280;9688;51.906;8.376;2022-07-29T15:52:47;100632.19;;;25.57;44.26
19112;BME280;9688;51.906;8.376;2022-07-29T15:55:52;100639.06;;;25.52;44.89
19112;BME280;9688;51.906;8.376;2022-07-29T15:58:56;100641.25;;;25.48;44.92
19112;BME280;9688;51.906;8.376;2022-07-29T16:02:02;100634.53;;;25.34;45.56
19112;BME280;9688;51.906;8.376;2022-07-29T16:05:09;100635.06;;;25.20;46.18
19112;BME280;9688;51.906;8.376;2022-07-29T16:08:15;100634.25;;;25.10;46.75
19112;BME280;9688;51.906;8.376;2022-07-29T16:11:23;100634.31;;;25.00;47.02
19112;BME280;9688;51.906;8.376;2022-07-29T16:14:29;100627.41;;;24.88;47.16
19112;BME280;9688;51.906;8.376;2022-07-29T16:17:36;100632.03;;;24.78;47.62
19112;BME280;9688;51.906;8.376;2022-07-29T16:20:43;100632.22;;;24.66;47.90
19112;BME280;9688;51.906;8.376;2022-07-29T16:23:49;100632.72;;;24.52;48.22
19112;BME280;9688;51.906;8.376;2022-07-29T16:26:57;100626.22;;;24.45;48.52
19112;BME280;9688;51.906;8.376;2022-07-29T16:30:08;100635.88;;;24.38;48.65
19112;BME280;9688;51.906;8.376;2022-07-29T16:33:14;100636.47;;;24.32;49.06
19112;BME280;9688;51.906;8.376;2022-07-29T16:36:20;100628.97;;;24.25;49.41